sensor_id;sensor_type;location;lat;lon;timestamp;temperature;humidity
4293;DHT22;2160;51.172;6.808;2023-09-30T04:02:43;15.80;99.90
4293;DHT22;2160;51.172;6.808;2023-09-30T04:05:14;15.80;99.90
4293;DHT22;2160;51.172;6.808;2023-09-30T04:07:42;15.70;99.90
4293;DHT22;2160;51.172;6.808;2023-09-30T04:10:10;15.50;99.90
4293;DHT22;2160;51.172;6.808;2023-09-30T04:12:37;15.40;99.90
4293;DHT22;2160;51.172;6.808;2023-09-30T04:15:04;15.60;99.90
4293;DHT22;2160;51.172;6.808;2023-09-30T04:17:32;15.70;99.90
4293;DHT22;2160;51.172;6.808;2023-09-30T04:20:00;15.80;99.90
4293;DHT22;2160;51.172;6.808;2023-09-30T04:22:27;15.80;99.90
4293;DHT22;2160;51.172;6.808;2023-09-30T04:24:55;15.80;99.90
4293;DHT22;2160;51.172;6.808;2023-09-30T04:27:22;15.80;99.90
4293;DHT22;2160;51.172;6.808;2023-09-30T04:29:49;15.80;99.90
4293;DHT22;2160;51.172;6.808;2023-09-30T04:32:16;15.80;99.90
4293;DHT22;2160;51.172;6.808;2023-09-30T04:34:43;15.80;99.90
4293;DHT22;2160;51.172;6.808;2023-09-30T04:37:13;15.70;99.90
4293;DHT22;2160;51.172;6.808;2023-09-30T04:39:40;15.70;99.90
4293;DHT22;2160;51.172;6.808;2023-09-30T04:42:07;15.60;99.90
4293;DHT22;2160;51.172;6.808;2023-09-30T04:44:36;15.50;99.90
4293;DHT22;2160;51.172;6.808;2023-09-30T04:47:04;15.50;99.90
4293;DHT22;2160;51.172;6.808;2023-09-30T04:49:31;15.50;99.90
4293;DHT22;2160;51.172;6.808;2023-09-30T04:51:58;15.60;99.90
4293;DHT22;2160;51.172;6.808;2023-09-30T04:54:27;15.40;99.90
4293;DHT22;2160;51.172;6.808;2023-09-30T04:56:55;15.40;99.90
4293;DHT22;2160;51.172;6.808;2023-09-30T04:59:22;15.10;99.90
4293;DHT22;2160;51.172;6.808;2023-09-30T05:01:50;15.00;99.90
4293;DHT22;2160;51.172;6.808;2023-09-30T05:04:18;15.30;99.90
4293;DHT22;2160;51.172;6.808;2023-09-30T05:06:45;15.30;99.90
4293;DHT22;2160;51.172;6.808;2023-09-30T05:09:12;15.40;99.90
4293;DHT22;2160;51.172;6.808;2023-09-30T05:11:41;15.40;99.90
4293;DHT22;2160;51.172;6.808;2023-09-30T05:14:08;15.50;99.90
4293;DHT22;2160;51.172;6.808;2023-09-30T05:16:35;15.50;99.90
4293;DHT22;2160;51.172;6.808;2023-09-30T05:19:02;15.50;99.90
4293;DHT22;2160;51.172;6.808;2023-09-30T05:21:30;15.40;99.90
4293;DHT22;2160;51.172;6.808;2023-09-30T05:23:57;15.60;99.90
4293;DHT22;2160;51.172;6.808;2023-09-30T05:26:24;15.40;99.90
4293;DHT22;2160;51.172;6.808;2023-09-30T05:28:52;15.50;99.90
4293;DHT22;2160;51.172;6.808;2023-09-30T05:31:19;15.40;99.90
4293;DHT22;2160;51.172;6.808;2023-09-30T05:33:46;15.30;99.90
4293;DHT22;2160;51.172;6.808;2023-09-30T05:36:13;15.30;99.90
4293;DHT22;2160;51.172;6.808;2023-09-30T05:38:40;15.10;99.90
4293;DHT22;2160;51.172;6.808;2023-09-30T05:41:07;15.10;99.90
4293;DHT22;2160;51.172;6.808;2023-09-30T05:43:34;15.10;99.90
4293;DHT22;2160;51.172;6.808;2023-09-30T05:46:02;15.30;99.90
4293;DHT22;2160;51.172;6.808;2023-09-30T05:48:29;15.30;99.90
4293;DHT22;2160;51.172;6.808;2023-09-30T05:50:57;15.30;99.90
4293;DHT22;2160;51.172;6.808;2023-09-30T05:53:24;15.40;99.90
4293;DHT22;2160;51.172;6.808;2023-09-30T05:55:51;15.40;99.90
4293;DHT22;2160;51.172;6.808;2023-09-30T05:58:18;15.40;99.90
4293;DHT22;2160;51.172;6.808;2023-09-30T06:00:46;15.50;99.90
4293;DHT22;2160;51.172;6.808;2023-09-30T06:03:14;15.40;99.90
4293;DHT22;2160;51.172;6.808;2023-09-30T06:05:41;15.40;99.90
4293;DHT22;2160;51.172;6.808;2023-09-30T06:08:09;15.40;99.90
4293;DHT22;2160;51.172;6.808;2023-09-30T06:10:40;15.50;99.90
4293;DHT22;2160;51.172;6.808;2023-09-30T06:13:08;15.60;99.90
4293;DHT22;2160;51.172;6.808;2023-09-30T06:15:37;15.60;99.90
4293;DHT22;2160;51.172;6.808;2023-09-30T06:18:08;15.60;99.90
4293;DHT22;2160;51.172;6.808;2023-09-30T06:20:39;15.60;99.90
4293;DHT22;2160;51.172;6.808;2023-09-30T06:23:07;15.60;99.90
4293;DHT22;2160;51.172;6.808;2023-09-30T06:25:34;15.40;99.90
4293;DHT22;2160;51.172;6.808;2023-09-30T06:28:01;15.50;99.90
4293;DHT22;2160;51.172;6.808;2023-09-30T06:30:29;15.70;99.90
4293;DHT22;2160;51.172;6.808;2023-09-30T06:32:56;15.60;99.90
4293;DHT22;2160;51.172;6.808;2023-09-30T06:35:23;15.50;99.90
4293;DHT22;2160;51.172;6.808;2023-09-30T06:37:51;15.70;99.90
4293;DHT22;2160;51.172;6.808;2023-09-30T06:40:18;15.80;99.90
4293;DHT22;2160;51.172;6.808;2023-09-30T06:42:46;15.80;99.90
4293;DHT22;2160;51.172;6.808;2023-09-30T06:45:13;15.80;99.90
4293;DHT22;2160;51.172;6.808;2023-09-30T06:47:41;15.80;99.90
4293;DHT22;2160;51.172;6.808;2023-09-30T06:50:10;15.80;99.90
4293;DHT22;2160;51.172;6.808;2023-09-30T06:52:39;15.70;99.90
4293;DHT22;2160;51.172;6.808;2023-09-30T06:55:08;15.60;99.90
4293;DHT22;2160;51.172;6.808;2023-09-30T06:57:37;15.70;99.90
4293;DHT22;2160;51.172;6.808;2023-09-30T07:00:07;16.00;99.90
4293;DHT22;2160;51.172;6.808;2023-09-30T07:02:35;16.20;99.90
4293;DHT22;2160;51.172;6.808;2023-09-30T07:05:05;16.40;99.90
4293;DHT22;2160;51.172;6.808;2023-09-30T07:07:32;16.30;99.90
4293;DHT22;2160;51.172;6.808;2023-09-30T07:09:59;16.30;99.90
4293;DHT22;2160;51.172;6.808;2023-09-30T07:12:27;16.50;99.90
4293;DHT22;2160;51.172;6.808;2023-09-30T07:14:54;16.90;99.90
4293;DHT22;2160;51.172;6.808;2023-09-30T07:17:21;17.00;99.90
4293;DHT22;2160;51.172;6.808;2023-09-30T07:19:48;17.20;99.90
4293;DHT22;2160;51.172;6.808;2023-09-30T07:22:16;17.40;99.90
4293;DHT22;2160;51.172;6.808;2023-09-30T07:24:42;17.90;99.90
4293;DHT22;2160;51.172;6.808;2023-09-30T07:27:09;18.30;99.90
4293;DHT22;2160;51.172;6.808;2023-09-30T07:29:38;18.40;99.90
4293;DHT22;2160;51.172;6.808;2023-09-30T07:32:07;18.40;99.90
4293;DHT22;2160;51.172;6.808;2023-09-30T07:34:34;18.30;99.90
4293;DHT22;2160;51.172;6.808;2023-09-30T07:37:01;18.20;99.90
4293;DHT22;2160;51.172;6.808;2023-09-30T07:39:29;18.10;99.90
4293;DHT22;2160;51.172;6.808;2023-09-30T07:41:56;18.00;99.90
4293;DHT22;2160;51.172;6.808;2023-09-30T07:44:23;17.90;99.90
4293;DHT22;2160;51.172;6.808;2023-09-30T07:46:52;18.00;99.90
4293;DHT22;2160;51.172;6.808;2023-09-30T07:49:19;18.20;99.90
4293;DHT22;2160;51.172;6.808;2023-09-30T07:51:46;18.50;99.90
4293;DHT22;2160;51.172;6.808;2023-09-30T07:54:13;18.90;99.90
4293;DHT22;2160;51.172;6.808;2023-09-30T07:56:40;19.00;99.90
4293;DHT22;2160;51.172;6.808;2023-09-30T07:59:07;19.10;99.90
4293;DHT22;2160;51.172;6.808;2023-09-30T08:01:34;18.90;99.90
4293;DHT22;2160;51.172;6.808;2023-09-30T08:04:02;18.90;99.90
4293;DHT22;2160;51.172;6.808;2023-09-30T08:06:29;18.80;99.90
4293;DHT22;2160;51.172;6.808;2023-09-30T08:08:56;18.70;99.90
4293;DHT22;2160;51.172;6.808;2023-09-30T08:11:23;18.70;99.90
4293;DHT22;2160;51.172;6.808;2023-09-30T08:13:53;18.70;99.90
4293;DHT22;2160;51.172;6.808;2023-09-30T08:16:20;18.70;99.90
4293;DHT22;2160;51.172;6.808;2023-09-30T08:18:47;18.80;99.90
4293;DHT22;2160;51.172;6.808;2023-09-30T08:21:15;18.40;99.90
4293;DHT22;2160;51.172;6.808;2023-09-30T08:23:42;18.50;99.90
4293;DHT22;2160;51.172;6.808;2023-09-30T08:26:09;18.70;99.90
4293;DHT22;2160;51.172;6.808;2023-09-30T08:28:37;18.20;99.90
4293;DHT22;2160;51.172;6.808;2023-09-30T08:31:05;18.30;99.90
4293;DHT22;2160;51.172;6.808;2023-09-30T08:33:32;18.40;99.90
4293;DHT22;2160;51.172;6.808;2023-09-30T08:36:02;18.60;99.90
4293;DHT22;2160;51.172;6.808;2023-09-30T08:38:34;18.60;99.90
4293;DHT22;2160;51.172;6.808;2023-09-30T08:41:01;18.60;99.90
4293;DHT22;2160;51.172;6.808;2023-09-30T08:43:29;18.30;99.90
4293;DHT22;2160;51.172;6.808;2023-09-30T08:45:58;18.30;99.90
4293;DHT22;2160;51.172;6.808;2023-09-30T08:48:26;18.60;99.90
4293;DHT22;2160;51.172;6.808;2023-09-30T08:50:54;18.70;99.90
4293;DHT22;2160;51.172;6.808;2023-09-30T08:53:22;18.80;99.90
4293;DHT22;2160;51.172;6.808;2023-09-30T08:55:53;18.90;99.90
4293;DHT22;2160;51.172;6.808;2023-09-30T08:58:23;19.00;99.90
4293;DHT22;2160;51.172;6.808;2023-09-30T09:00:50;18.80;99.90
4293;DHT22;2160;51.172;6.808;2023-09-30T09:03:19;19.00;99.90
4293;DHT22;2160;51.172;6.808;2023-09-30T09:05:46;19.20;99.90
4293;DHT22;2160;51.172;6.808;2023-09-30T09:08:13;19.30;99.90
4293;DHT22;2160;51.172;6.808;2023-09-30T09:10:55;19.20;99.90
4293;DHT22;2160;51.172;6.808;2023-09-30T09:13:23;19.20;99.90
4293;DHT22;2160;51.172;6.808;2023-09-30T09:16:04;19.00;99.90
4293;DHT22;2160;51.172;6.808;2023-09-30T09:18:32;19.10;99.90
4293;DHT22;2160;51.172;6.808;2023-09-30T09:21:10;19.40;99.90
4293;DHT22;2160;51.172;6.808;2023-09-30T09:23:42;19.50;99.90
4293;DHT22;2160;51.172;6.808;2023-09-30T09:26:12;19.60;99.90
4293;DHT22;2160;51.172;6.808;2023-09-30T09:28:39;19.60;99.90
4293;DHT22;2160;51.172;6.808;2023-09-30T09:31:21;19.50;99.90
4293;DHT22;2160;51.172;6.808;2023-09-30T09:33:49;19.80;99.90
4293;DHT22;2160;51.172;6.808;2023-09-30T09:36:17;19.80;99.90
4293;DHT22;2160;51.172;6.808;2023-09-30T09:38:48;20.00;99.90
4293;DHT22;2160;51.172;6.808;2023-09-30T09:41:17;20.10;99.90
4293;DHT22;2160;51.172;6.808;2023-09-30T09:43:44;20.20;99.90
4293;DHT22;2160;51.172;6.808;2023-09-30T09:46:12;20.40;99.90
4293;DHT22;2160;51.172;6.808;2023-09-30T09:48:39;20.40;99.90
4293;DHT22;2160;51.172;6.808;2023-09-30T09:51:09;20.20;99.90
4293;DHT22;2160;51.172;6.808;2023-09-30T09:53:39;20.40;99.90
4293;DHT22;2160;51.172;6.808;2023-09-30T09:56:08;20.60;99.90
4293;DHT22;2160;51.172;6.808;2023-09-30T09:58:37;20.80;99.90
4293;DHT22;2160;51.172;6.808;2023-09-30T10:01:06;21.10;99.90
4293;DHT22;2160;51.172;6.808;2023-09-30T10:03:35;21.20;99.90
4293;DHT22;2160;51.172;6.808;2023-09-30T10:06:04;21.40;99.90
4293;DHT22;2160;51.172;6.808;2023-09-30T10:08:33;21.50;99.90
4293;DHT22;2160;51.172;6.808;2023-09-30T10:11:02;21.70;99.90
4293;DHT22;2160;51.172;6.808;2023-09-30T10:13:53;21.80;99.90
4293;DHT22;2160;51.172;6.808;2023-09-30T10:16:47;22.00;99.90
4293;DHT22;2160;51.172;6.808;2023-09-30T10:19:16;21.70;99.90
4293;DHT22;2160;51.172;6.808;2023-09-30T10:22:21;21.90;99.90
4293;DHT22;2160;51.172;6.808;2023-09-30T10:24:55;22.20;99.90
4293;DHT22;2160;51.172;6.808;2023-09-30T10:27:33;22.50;99.90
4293;DHT22;2160;51.172;6.808;2023-09-30T10:30:11;22.60;99.90
4293;DHT22;2160;51.172;6.808;2023-09-30T10:33:10;21.50;99.90
4293;DHT22;2160;51.172;6.808;2023-09-30T10:35:45;21.80;99.90
4293;DHT22;2160;51.172;6.808;2023-09-30T10:38:37;22.10;99.90
4293;DHT22;2160;51.172;6.808;2023-09-30T10:41:10;22.40;99.90
4293;DHT22;2160;51.172;6.808;2023-09-30T10:43:40;22.50;99.90
4293;DHT22;2160;51.172;6.808;2023-09-30T10:46:33;22.50;99.90
4293;DHT22;2160;51.172;6.808;2023-09-30T10:49:32;22.70;99.90
4293;DHT22;2160;51.172;6.808;2023-09-30T10:52:00;22.90;99.90
4293;DHT22;2160;51.172;6.808;2023-09-30T10:54:28;22.70;99.90
4293;DHT22;2160;51.172;6.808;2023-09-30T10:56:57;22.60;99.90
4293;DHT22;2160;51.172;6.808;2023-09-30T10:59:26;22.70;99.90
4293;DHT22;2160;51.172;6.808;2023-09-30T11:01:57;22.50;99.90
4293;DHT22;2160;51.172;6.808;2023-09-30T11:04:24;22.80;99.90
4293;DHT22;2160;51.172;6.808;2023-09-30T11:06:53;22.90;99.90
4293;DHT22;2160;51.172;6.808;2023-09-30T11:09:21;23.10;99.90
4293;DHT22;2160;51.172;6.808;2023-09-30T11:11:49;23.10;99.90
4293;DHT22;2160;51.172;6.808;2023-09-30T11:14:20;23.00;99.90
4293;DHT22;2160;51.172;6.808;2023-09-30T11:16:48;23.00;99.90
4293;DHT22;2160;51.172;6.808;2023-09-30T11:19:17;23.00;99.90
4293;DHT22;2160;51.172;6.808;2023-09-30T11:21:47;22.80;99.90
4293;DHT22;2160;51.172;6.808;2023-09-30T11:24:15;22.90;99.90
4293;DHT22;2160;51.172;6.808;2023-09-30T11:26:43;22.90;99.90
4293;DHT22;2160;51.172;6.808;2023-09-30T11:29:11;23.20;99.90
4293;DHT22;2160;51.172;6.808;2023-09-30T11:31:39;23.20;99.90
4293;DHT22;2160;51.172;6.808;2023-09-30T11:34:06;22.40;99.90
4293;DHT22;2160;51.172;6.808;2023-09-30T11:36:37;22.10;99.90
4293;DHT22;2160;51.172;6.808;2023-09-30T11:39:05;22.20;99.90
4293;DHT22;2160;51.172;6.808;2023-09-30T11:41:36;22.50;99.90
4293;DHT22;2160;51.172;6.808;2023-09-30T11:44:06;22.30;99.90
4293;DHT22;2160;51.172;6.808;2023-09-30T11:46:48;22.60;99.90
4293;DHT22;2160;51.172;6.808;2023-09-30T11:49:30;22.90;99.90
4293;DHT22;2160;51.172;6.808;2023-09-30T11:52:01;23.00;99.90
4293;DHT22;2160;51.172;6.808;2023-09-30T11:54:30;22.80;99.90
4293;DHT22;2160;51.172;6.808;2023-09-30T11:56:58;22.90;99.90
4293;DHT22;2160;51.172;6.808;2023-09-30T11:59:25;23.10;99.90
4293;DHT22;2160;51.172;6.808;2023-09-30T12:01:52;23.10;99.90
4293;DHT22;2160;51.172;6.808;2023-09-30T12:04:20;23.40;99.90
4293;DHT22;2160;51.172;6.808;2023-09-30T12:06:48;23.50;99.90
4293;DHT22;2160;51.172;6.808;2023-09-30T12:09:16;23.80;99.90
4293;DHT22;2160;51.172;6.808;2023-09-30T12:11:48;24.00;99.90
4293;DHT22;2160;51.172;6.808;2023-09-30T12:14:15;24.10;99.90
4293;DHT22;2160;51.172;6.808;2023-09-30T12:16:42;24.10;99.90
4293;DHT22;2160;51.172;6.808;2023-09-30T12:19:11;24.00;99.90
4293;DHT22;2160;51.172;6.808;2023-09-30T12:21:39;24.20;99.90
4293;DHT22;2160;51.172;6.808;2023-09-30T12:24:06;24.30;99.90
4293;DHT22;2160;51.172;6.808;2023-09-30T12:26:36;24.40;99.90
4293;DHT22;2160;51.172;6.808;2023-09-30T12:29:04;25.00;99.90
4293;DHT22;2160;51.172;6.808;2023-09-30T12:31:31;25.60;99.90
4293;DHT22;2160;51.172;6.808;2023-09-30T12:33:59;26.00;98.30
4293;DHT22;2160;51.172;6.808;2023-09-30T12:36:26;26.40;96.30
4293;DHT22;2160;51.172;6.808;2023-09-30T12:38:53;26.90;95.70
4293;DHT22;2160;51.172;6.808;2023-09-30T12:41:20;26.80;93.20
4293;DHT22;2160;51.172;6.808;2023-09-30T12:43:48;26.90;94.70
4293;DHT22;2160;51.172;6.808;2023-09-30T12:46:15;26.80;95.30
4293;DHT22;2160;51.172;6.808;2023-09-30T12:48:43;26.70;90.80
4293;DHT22;2160;51.172;6.808;2023-09-30T12:51:11;26.60;93.70
4293;DHT22;2160;51.172;6.808;2023-09-30T12:53:38;26.90;91.80
4293;DHT22;2160;51.172;6.808;2023-09-30T12:56:05;27.50;91.20
4293;DHT22;2160;51.172;6.808;2023-09-30T12:58:32;28.00;85.90
4293;DHT22;2160;51.172;6.808;2023-09-30T13:01:00;28.20;88.90
4293;DHT22;2160;51.172;6.808;2023-09-30T13:03:28;27.90;84.90
4293;DHT22;2160;51.172;6.808;2023-09-30T13:05:55;27.40;86.30
4293;DHT22;2160;51.172;6.808;2023-09-30T13:08:22;26.80;87.00
4293;DHT22;2160;51.172;6.808;2023-09-30T13:10:49;26.70;86.30
4293;DHT22;2160;51.172;6.808;2023-09-30T13:13:18;25.70;85.20
4293;DHT22;2160;51.172;6.808;2023-09-30T13:15:45;26.20;90.20
4293;DHT22;2160;51.172;6.808;2023-09-30T13:18:13;26.60;89.30
4293;DHT22;2160;51.172;6.808;2023-09-30T13:20:40;26.90;78.80
4293;DHT22;2160;51.172;6.808;2023-09-30T13:23:07;27.20;85.50
4293;DHT22;2160;51.172;6.808;2023-09-30T13:25:34;27.50;81.60
4293;DHT22;2160;51.172;6.808;2023-09-30T13:28:01;27.90;79.20
4293;DHT22;2160;51.172;6.808;2023-09-30T13:30:28;28.10;78.50
4293;DHT22;2160;51.172;6.808;2023-09-30T13:32:55;28.50;71.30
4293;DHT22;2160;51.172;6.808;2023-09-30T13:35:24;28.70;71.90
4293;DHT22;2160;51.172;6.808;2023-09-30T13:37:51;28.90;71.80
4293;DHT22;2160;51.172;6.808;2023-09-30T13:40:18;28.70;64.50
4293;DHT22;2160;51.172;6.808;2023-09-30T13:42:45;28.70;67.50
4293;DHT22;2160;51.172;6.808;2023-09-30T13:45:12;28.60;65.20
4293;DHT22;2160;51.172;6.808;2023-09-30T13:47:42;29.10;68.10
4293;DHT22;2160;51.172;6.808;2023-09-30T13:50:09;29.10;61.80
4293;DHT22;2160;51.172;6.808;2023-09-30T13:52:38;28.90;63.30
4293;DHT22;2160;51.172;6.808;2023-09-30T13:55:05;27.80;63.30
4293;DHT22;2160;51.172;6.808;2023-09-30T13:57:34;27.80;67.10
4293;DHT22;2160;51.172;6.808;2023-09-30T14:00:01;27.90;64.90
4293;DHT22;2160;51.172;6.808;2023-09-30T14:02:30;27.50;69.70
4293;DHT22;2160;51.172;6.808;2023-09-30T14:04:57;27.70;68.30
4293;DHT22;2160;51.172;6.808;2023-09-30T14:07:24;27.90;70.30
4293;DHT22;2160;51.172;6.808;2023-09-30T14:09:52;27.70;68.00
4293;DHT22;2160;51.172;6.808;2023-09-30T14:12:20;28.20;70.10
4293;DHT22;2160;51.172;6.808;2023-09-30T14:14:47;28.40;71.10
4293;DHT22;2160;51.172;6.808;2023-09-30T14:17:17;28.60;69.20
4293;DHT22;2160;51.172;6.808;2023-09-30T14:19:44;28.50;65.10
4293;DHT22;2160;51.172;6.808;2023-09-30T14:22:11;28.50;67.10
4293;DHT22;2160;51.172;6.808;2023-09-30T14:24:38;28.30;66.70
4293;DHT22;2160;51.172;6.808;2023-09-30T14:27:06;28.60;65.30
4293;DHT22;2160;51.172;6.808;2023-09-30T14:29:34;28.70;62.80
4293;DHT22;2160;51.172;6.808;2023-09-30T14:32:01;28.80;63.70
4293;DHT22;2160;51.172;6.808;2023-09-30T14:34:28;29.00;63.00
4293;DHT22;2160;51.172;6.808;2023-09-30T14:36:55;29.50;62.40
4293;DHT22;2160;51.172;6.808;2023-09-30T14:39:22;29.90;61.40
4293;DHT22;2160;51.172;6.808;2023-09-30T14:41:49;30.40;60.10
4293;DHT22;2160;51.172;6.808;2023-09-30T14:44:18;31.20;58.70
4293;DHT22;2160;51.172;6.808;2023-09-30T14:46:47;31.40;54.90
4293;DHT22;2160;51.172;6.808;2023-09-30T14:49:14;31.20;52.20
4293;DHT22;2160;51.172;6.808;2023-09-30T14:51:41;30.70;51.90
4293;DHT22;2160;51.172;6.808;2023-09-30T14:54:09;30.30;53.90
4293;DHT22;2160;51.172;6.808;2023-09-30T14:56:36;29.60;55.10
4293;DHT22;2160;51.172;6.808;2023-09-30T14:59:03;29.10;58.30
4293;DHT22;2160;51.172;6.808;2023-09-30T15:01:32;28.60;59.90
4293;DHT22;2160;51.172;6.808;2023-09-30T15:03:59;28.30;62.90
4293;DHT22;2160;51.172;6.808;2023-09-30T15:06:26;28.20;68.00
4293;DHT22;2160;51.172;6.808;2023-09-30T15:08:54;28.00;70.40
4293;DHT22;2160;51.172;6.808;2023-09-30T15:11:21;27.50;65.70
4293;DHT22;2160;51.172;6.808;2023-09-30T15:13:49;27.20;71.00
4293;DHT22;2160;51.172;6.808;2023-09-30T15:16:17;26.90;67.60
4293;DHT22;2160;51.172;6.808;2023-09-30T15:18:47;26.70;72.30
4293;DHT22;2160;51.172;6.808;2023-09-30T15:21:14;26.60;72.20
4293;DHT22;2160;51.172;6.808;2023-09-30T15:23:42;26.50;77.10
4293;DHT22;2160;51.172;6.808;2023-09-30T15:26:09;26.30;73.60
4293;DHT22;2160;51.172;6.808;2023-09-30T15:28:37;25.90;78.20
4293;DHT22;2160;51.172;6.808;2023-09-30T15:31:04;25.90;80.50
4293;DHT22;2160;51.172;6.808;2023-09-30T15:33:32;25.90;81.70
4293;DHT22;2160;51.172;6.808;2023-09-30T15:36:08;25.70;82.40
4293;DHT22;2160;51.172;6.808;2023-09-30T15:38:35;25.60;83.60
4293;DHT22;2160;51.172;6.808;2023-09-30T15:41:02;25.60;84.50
4293;DHT22;2160;51.172;6.808;2023-09-30T15:43:30;25.40;84.80
4293;DHT22;2160;51.172;6.808;2023-09-30T15:45:58;25.30;86.20
4293;DHT22;2160;51.172;6.808;2023-09-30T15:48:26;25.20;86.70
4293;DHT22;2160;51.172;6.808;2023-09-30T15:50:52;25.10;87.50
4293;DHT22;2160;51.172;6.808;2023-09-30T15:53:21;24.90;89.00
4293;DHT22;2160;51.172;6.808;2023-09-30T15:55:48;24.80;89.80
4293;DHT22;2160;51.172;6.808;2023-09-30T15:58:15;24.70;90.80
4293;DHT22;2160;51.172;6.808;2023-09-30T16:00:42;24.50;90.80
4293;DHT22;2160;51.172;6.808;2023-09-30T16:03:10;24.40;91.70
4293;DHT22;2160;51.172;6.808;2023-09-30T16:05:38;24.30;92.30
4293;DHT22;2160;51.172;6.808;2023-09-30T16:08:06;24.20;93.00
4293;DHT22;2160;51.172;6.808;2023-09-30T16:10:36;24.10;93.40
4293;DHT22;2160;51.172;6.808;2023-09-30T16:13:03;24.00;94.00
4293;DHT22;2160;51.172;6.808;2023-09-30T16:15:32;23.90;94.70
4293;DHT22;2160;51.172;6.808;2023-09-30T16:18:00;23.70;95.50
4293;DHT22;2160;51.172;6.808;2023-09-30T16:20:28;23.50;96.00
4293;DHT22;2160;51.172;6.808;2023-09-30T16:22:55;23.40;96.80
4293;DHT22;2160;51.172;6.808;2023-09-30T16:25:22;23.40;97.20
4293;DHT22;2160;51.172;6.808;2023-09-30T16:27:51;23.30;97.80
4293;DHT22;2160;51.172;6.808;2023-09-30T16:30:20;23.10;98.50
4293;DHT22;2160;51.172;6.808;2023-09-30T16:32:47;23.00;99.30
4293;DHT22;2160;51.172;6.808;2023-09-30T16:35:14;22.90;99.50
4293;DHT22;2160;51.172;6.808;2023-09-30T16:37:41;22.90;99.90
4293;DHT22;2160;51.172;6.808;2023-09-30T16:40:09;22.80;99.90
4293;DHT22;2160;51.172;6.808;2023-09-30T16:42:36;22.70;99.90
4293;DHT22;2160;51.172;6.808;2023-09-30T16:45:06;22.60;99.90
4293;DHT22;2160;51.172;6.808;2023-09-30T16:47:34;22.40;99.90
4293;DHT22;2160;51.172;6.808;2023-09-30T16:50:01;22.30;99.90
4293;DHT22;2160;51.172;6.808;2023-09-30T16:52:29;22.20;99.90
4293;DHT22;2160;51.172;6.808;2023-09-30T16:54:56;22.10;99.90
4293;DHT22;2160;51.172;6.808;2023-09-30T16:57:23;22.00;99.90
4293;DHT22;2160;51.172;6.808;2023-09-30T16:59:50;21.90;99.90
4293;DHT22;2160;51.172;6.808;2023-09-30T17:02:18;21.80;99.90
4293;DHT22;2160;51.172;6.808;2023-09-30T17:04:46;21.70;99.90
4293;DHT22;2160;51.172;6.808;2023-09-30T17:07:13;21.60;99.90
4293;DHT22;2160;51.172;6.808;2023-09-30T17:09:40;21.20;99.90
4293;DHT22;2160;51.172;6.808;2023-09-30T17:12:07;21.00;99.90
4293;DHT22;2160;51.172;6.808;2023-09-30T17:14:35;21.10;99.90
4293;DHT22;2160;51.172;6.808;2023-09-30T17:17:02;21.10;99.90
4293;DHT22;2160;51.172;6.808;2023-09-30T17:19:30;21.00;99.90
4293;DHT22;2160;51.172;6.808;2023-09-30T17:21:57;20.90;99.90
4293;DHT22;2160;51.172;6.808;2023-09-30T17:24:24;20.80;99.90
4293;DHT22;2160;51.172;6.808;2023-09-30T17:26:51;20.80;99.90
4293;DHT22;2160;51.172;6.808;2023-09-30T17:29:18;20.60;99.90
4293;DHT22;2160;51.172;6.808;2023-09-30T17:31:46;20.20;99.90
4293;DHT22;2160;51.172;6.808;2023-09-30T17:34:13;20.20;99.90
4293;DHT22;2160;51.172;6.808;2023-09-30T17:36:41;19.90;99.90
4293;DHT22;2160;51.172;6.808;2023-09-30T17:39:08;19.90;99.90
4293;DHT22;2160;51.172;6.808;2023-09-30T17:41:35;20.00;99.90
4293;DHT22;2160;51.172;6.808;2023-09-30T17:44:02;20.00;99.90
4293;DHT22;2160;51.172;6.808;2023-09-30T17:46:29;20.00;99.90
4293;DHT22;2160;51.172;6.808;2023-09-30T17:48:56;19.90;99.90
4293;DHT22;2160;51.172;6.808;2023-09-30T17:51:23;19.90;99.90
4293;DHT22;2160;51.172;6.808;2023-09-30T17:53:52;19.80;99.90
4293;DHT22;2160;51.172;6.808;2023-09-30T17:56:20;19.80;99.90
4293;DHT22;2160;51.172;6.808;2023-09-30T17:58:48;19.80;99.90
4293;DHT22;2160;51.172;6.808;2023-09-30T18:01:15;19.70;99.90
4293;DHT22;2160;51.172;6.808;2023-09-30T18:03:44;19.60;99.90
4293;DHT22;2160;51.172;6.808;2023-09-30T18:06:12;19.60;99.90
4293;DHT22;2160;51.172;6.808;2023-09-30T18:08:40;19.50;99.90
4293;DHT22;2160;51.172;6.808;2023-09-30T18:11:09;19.40;99.90
4293;DHT22;2160;51.172;6.808;2023-09-30T18:13:38;19.40;99.90
4293;DHT22;2160;51.172;6.808;2023-09-30T18:16:06;19.30;99.90
4293;DHT22;2160;51.172;6.808;2023-09-30T18:18:35;19.30;99.90
4293;DHT22;2160;51.172;6.808;2023-09-30T18:21:02;19.20;99.90
4293;DHT22;2160;51.172;6.808;2023-09-30T18:23:29;19.20;99.90
4293;DHT22;2160;51.172;6.808;2023-09-30T18:25:56;19.10;99.90
4293;DHT22;2160;51.172;6.808;2023-09-30T18:28:24;19.00;99.90
4293;DHT22;2160;51.172;6.808;2023-09-30T18:30:54;19.00;99.90
4293;DHT22;2160;51.172;6.808;2023-09-30T18:33:21;19.00;99.90
4293;DHT22;2160;51.172;6.808;2023-09-30T18:35:48;18.90;99.90
4293;DHT22;2160;51.172;6.808;2023-09-30T18:38:15;18.90;99.90
4293;DHT22;2160;51.172;6.808;2023-09-30T18:40:42;18.80;99.90
4293;DHT22;2160;51.172;6.808;2023-09-30T18:43:11;18.80;99.90
4293;DHT22;2160;51.172;6.808;2023-09-30T18:45:40;18.70;99.90
4293;DHT22;2160;51.172;6.808;2023-09-30T18:48:08;18.70;99.90
4293;DHT22;2160;51.172;6.808;2023-09-30T18:50:39;18.70;99.90
4293;DHT22;2160;51.172;6.808;2023-09-30T18:53:07;18.60;99.90
4293;DHT22;2160;51.172;6.808;2023-09-30T18:55:35;18.60;99.90
4293;DHT22;2160;51.172;6.808;2023-09-30T18:58:04;18.60;99.90
4293;DHT22;2160;51.172;6.808;2023-09-30T19:00:31;18.60;99.90
4293;DHT22;2160;51.172;6.808;2023-09-30T19:03:00;18.50;99.90
4293;DHT22;2160;51.172;6.808;2023-09-30T19:05:27;18.40;99.90
4293;DHT22;2160;51.172;6.808;2023-09-30T19:07:54;18.30;99.90
4293;DHT22;2160;51.172;6.808;2023-09-30T19:10:23;18.30;99.90
4293;DHT22;2160;51.172;6.808;2023-09-30T19:12:50;18.30;99.90
4293;DHT22;2160;51.172;6.808;2023-09-30T19:15:17;18.30;99.90
4293;DHT22;2160;51.172;6.808;2023-09-30T19:17:44;18.30;99.90
4293;DHT22;2160;51.172;6.808;2023-09-30T19:20:13;18.30;99.90
4293;DHT22;2160;51.172;6.808;2023-09-30T19:22:41;18.20;99.90
4293;DHT22;2160;51.172;6.808;2023-09-30T19:25:08;18.20;99.90
4293;DHT22;2160;51.172;6.808;2023-09-30T19:27:35;18.20;99.90
4293;DHT22;2160;51.172;6.808;2023-09-30T19:30:02;18.10;99.90
4293;DHT22;2160;51.172;6.808;2023-09-30T19:32:31;18.20;99.90
4293;DHT22;2160;51.172;6.808;2023-09-30T19:34:59;18.20;99.90
4293;DHT22;2160;51.172;6.808;2023-09-30T19:37:27;18.20;99.90
4293;DHT22;2160;51.172;6.808;2023-09-30T19:39:55;18.20;99.90
4293;DHT22;2160;51.172;6.808;2023-09-30T19:42:21;18.20;99.90
4293;DHT22;2160;51.172;6.808;2023-09-30T19:44:48;18.10;99.90
4293;DHT22;2160;51.172;6.808;2023-09-30T19:47:15;18.20;99.90
4293;DHT22;2160;51.172;6.808;2023-09-30T19:49:42;18.10;99.90
4293;DHT22;2160;51.172;6.808;2023-09-30T19:52:10;18.10;99.90
4293;DHT22;2160;51.172;6.808;2023-09-30T19:54:38;18.10;99.90
4293;DHT22;2160;51.172;6.808;2023-09-30T19:57:06;18.10;99.90
4293;DHT22;2160;51.172;6.808;2023-09-30T19:59:37;18.10;99.90
4293;DHT22;2160;51.172;6.808;2023-09-30T20:02:04;18.20;99.90
4293;DHT22;2160;51.172;6.808;2023-09-30T20:04:31;18.20;99.90
4293;DHT22;2160;51.172;6.808;2023-09-30T20:06:58;18.20;99.90
4293;DHT22;2160;51.172;6.808;2023-09-30T20:09:26;18.40;99.90
4293;DHT22;2160;51.172;6.808;2023-09-30T20:11:54;18.30;99.90